Time,TemperatureF,DewpointF,PressureIn,WindDirection,WindDirectionDegrees,WindSpeedMPH,WindSpeedGustMPH,Humidity,HourlyPrecipIn,Conditions,Clouds,dailyrainin,SoftwareType,DateUTC
2013-08-03 00:21:00,53.8,50.6,29.80,West,270,1.7,-999.0,89,-99.99,,,0.00,Acu-Link.com,2013-08-03 07:21:00,
2013-08-03 00:36:00,54.3,51.4,29.81,SW,225,1.7,-999.0,90,-99.99,,,0.00,Acu-Link.com,2013-08-03 07:36:00,
2013-08-03 00:52:00,54.9,52.0,29.79,SSE,157,1.7,-999.0,90,-99.99,,,0.00,Acu-Link.com,2013-08-03 07:52:00,
2013-08-03 01:07:00,55.8,52.9,29.79,South,180,1.7,-999.0,90,-99.99,,,0.00,Acu-Link.com,2013-08-03 08:07:00,
2013-08-03 01:22:00,55.9,53.0,29.79,NE,45,2.2,-999.0,90,-99.99,,,0.00,Acu-Link.com,2013-08-03 08:22:00,
2013-08-03 01:37:00,55.8,52.9,29.80,WSW,247,1.1,-999.0,90,-99.99,,,0.00,Acu-Link.com,2013-08-03 08:37:00,
2013-08-03 01:52:00,55.6,53.0,29.79,South,180,2.2,-999.0,91,-99.99,,,0.00,Acu-Link.com,2013-08-03 08:52:00,
2013-08-03 02:07:00,55.0,53.0,29.80,SW,225,0.0,-999.0,93,-99.99,,,0.00,Acu-Link.com,2013-08-03 09:07:00,
2013-08-03 02:23:00,55.0,53.0,29.79,SW,225,2.2,-999.0,93,-99.99,,,0.00,Acu-Link.com,2013-08-03 09:23:00,
2013-08-03 02:38:00,55.0,52.7,29.79,SW,225,3.2,-999.0,92,-99.99,,,0.00,Acu-Link.com,2013-08-03 09:38:00,
2013-08-03 02:53:00,55.4,53.1,29.80,SW,225,2.7,-999.0,92,-99.99,,,0.00,Acu-Link.com,2013-08-03 09:53:00,
2013-08-03 03:08:00,55.8,53.2,29.79,SW,225,1.7,-999.0,91,-99.99,,,0.00,Acu-Link.com,2013-08-03 10:08:00,
2013-08-03 03:23:00,55.6,53.0,29.79,WSW,247,3.7,-999.0,91,-99.99,,,0.00,Acu-Link.com,2013-08-03 10:23:00,
2013-08-03 03:39:00,55.8,53.2,29.79,West,270,2.2,-999.0,91,-99.99,,,0.00,Acu-Link.com,2013-08-03 10:39:00,
2013-08-03 03:54:00,55.8,52.9,29.79,WSW,247,3.2,-999.0,90,-99.99,,,0.00,Acu-Link.com,2013-08-03 10:54:00,
2013-08-03 04:09:00,55.8,52.6,29.80,SW,225,2.2,-999.0,89,-99.99,,,0.00,Acu-Link.com,2013-08-03 11:09:00,
2013-08-03 04:24:00,55.6,52.1,29.80,West,270,2.2,-999.0,88,-99.99,,,0.00,Acu-Link.com,2013-08-03 11:24:00,
2013-08-03 04:39:00,55.6,52.1,29.79,SW,225,2.2,-999.0,88,-99.99,,,0.00,Acu-Link.com,2013-08-03 11:39:00,
2013-08-03 04:55:00,55.4,51.9,29.79,West,270,1.1,-999.0,88,-99.99,,,0.00,Acu-Link.com,2013-08-03 11:55:00,
2013-08-03 05:10:00,55.6,52.1,29.79,South,180,2.7,-999.0,88,-99.99,,,0.00,Acu-Link.com,2013-08-03 12:10:00,
2013-08-03 05:25:00,55.4,51.9,29.80,SW,225,1.7,-999.0,88,-99.99,,,0.00,Acu-Link.com,2013-08-03 12:25:00,
2013-08-03 05:40:00,55.4,51.9,29.79,SW,225,1.7,-999.0,88,-99.99,,,0.00,Acu-Link.com,2013-08-03 12:40:00,
2013-08-03 05:55:00,55.4,51.9,29.80,SW,225,0.0,-999.0,88,-99.99,,,0.00,Acu-Link.com,2013-08-03 12:55:00,
2013-08-03 06:10:00,55.4,51.9,29.80,West,270,1.7,-999.0,88,-99.99,,,0.00,Acu-Link.com,2013-08-03 13:10:00,
2013-08-03 06:26:00,55.4,51.9,29.81,SW,225,2.2,-999.0,88,-99.99,,,0.00,Acu-Link.com,2013-08-03 13:26:00,
2013-08-03 06:56:00,55.9,52.1,29.82,SSW,202,2.7,-999.0,87,-99.99,,,0.00,Acu-Link.com,2013-08-03 13:56:00,
2013-08-03 07:27:00,57.0,52.5,29.82,SW,225,0.0,-999.0,85,-99.99,,,0.00,Acu-Link.com,2013-08-03 14:27:00,
2013-08-03 07:42:00,57.4,52.6,29.83,WSW,247,2.2,-999.0,84,-99.99,,,0.00,Acu-Link.com,2013-08-03 14:42:00,
2013-08-03 07:57:00,57.9,52.8,29.83,SSW,202,1.7,-999.0,83,-99.99,,,0.00,Acu-Link.com,2013-08-03 14:57:00,
2013-08-03 08:12:00,59.5,53.7,29.83,SSW,202,1.1,-999.0,81,-99.99,,,0.00,Acu-Link.com,2013-08-03 15:12:00,
2013-08-03 08:28:00,62.4,54.0,29.83,NNE,22,3.7,-999.0,74,-99.99,,,0.00,Acu-Link.com,2013-08-03 15:28:00,
2013-08-03 08:43:00,64.9,54.1,29.83,NNE,22,3.2,-999.0,68,-99.99,,,0.00,Acu-Link.com,2013-08-03 15:43:00,
2013-08-03 08:58:00,67.1,54.9,29.84,ESE,112,0.0,-999.0,65,-99.99,,,0.00,Acu-Link.com,2013-08-03 15:58:00,
2013-08-03 09:13:00,69.3,55.3,29.84,ESE,112,1.7,-999.0,61,-99.99,,,0.00,Acu-Link.com,2013-08-03 16:13:00,
2013-08-03 09:28:00,64.9,53.3,29.83,NNW,337,0.0,-999.0,66,-99.99,,,0.00,Acu-Link.com,2013-08-03 16:28:00,
2013-08-03 09:44:00,65.8,54.5,29.83,ENE,67,1.1,-999.0,67,-99.99,,,0.00,Acu-Link.com,2013-08-03 16:44:00,
2013-08-03 09:59:00,67.3,55.1,29.83,SE,135,2.2,-999.0,65,-99.99,,,0.00,Acu-Link.com,2013-08-03 16:59:00,
2013-08-03 10:14:00,68.4,55.3,29.84,NNE,22,5.8,-999.0,63,-99.99,,,0.00,Acu-Link.com,2013-08-03 17:14:00,
2013-08-03 10:30:00,68.7,55.6,29.84,NE,45,5.3,-999.0,63,-99.99,,,0.00,Acu-Link.com,2013-08-03 17:30:00,
2013-08-03 10:45:00,69.4,55.8,29.83,SSW,202,2.2,-999.0,62,-99.99,,,0.00,Acu-Link.com,2013-08-03 17:45:00,
2013-08-03 11:00:00,69.3,56.2,29.83,SE,135,3.7,-999.0,63,-99.99,,,0.00,Acu-Link.com,2013-08-03 18:00:00,
2013-08-03 11:15:00,70.5,56.4,29.83,NE,45,3.2,-999.0,61,-99.99,,,0.00,Acu-Link.com,2013-08-03 18:15:00,
2013-08-03 11:30:00,69.8,56.2,29.83,SSE,157,4.2,-999.0,62,-99.99,,,0.00,Acu-Link.com,2013-08-03 18:30:00,
2013-08-03 11:46:00,72.5,57.8,29.82,SW,225,3.2,-999.0,60,-99.99,,,0.00,Acu-Link.com,2013-08-03 18:46:00,
2013-08-03 12:01:00,72.9,57.7,29.82,North,0,3.7,-999.0,59,-99.99,,,0.00,Acu-Link.com,2013-08-03 19:01:00,
2013-08-03 12:16:00,72.9,57.7,29.82,ENE,67,4.2,-999.0,59,-99.99,,,0.00,Acu-Link.com,2013-08-03 19:16:00,
2013-08-03 12:46:00,76.5,59.6,29.82,NNE,22,3.2,-999.0,56,-99.99,,,0.00,Acu-Link.com,2013-08-03 19:46:00,
2013-08-03 13:02:00,74.8,58.0,29.81,NE,45,5.3,-999.0,56,-99.99,,,0.00,Acu-Link.com,2013-08-03 20:02:00,
2013-08-03 13:17:00,75.4,58.1,29.81,NNE,22,3.2,-999.0,55,-99.99,,,0.00,Acu-Link.com,2013-08-03 20:17:00,
2013-08-03 13:32:00,77.2,58.7,29.82,NNW,337,7.8,-999.0,53,-99.99,,,0.00,Acu-Link.com,2013-08-03 20:32:00,
2013-08-03 13:47:00,75.4,57.6,29.80,ENE,67,5.8,-999.0,54,-99.99,,,0.00,Acu-Link.com,2013-08-03 20:47:00,
2013-08-03 14:02:00,75.6,58.3,29.80,West,270,1.7,-999.0,55,-99.99,,,0.00,Acu-Link.com,2013-08-03 21:02:00,
2013-08-03 14:18:00,75.0,57.7,29.79,NNW,337,3.2,-999.0,55,-99.99,,,0.00,Acu-Link.com,2013-08-03 21:18:00,
2013-08-03 14:33:00,76.5,58.6,29.79,ESE,112,4.2,-999.0,54,-99.99,,,0.00,Acu-Link.com,2013-08-03 21:33:00,
2013-08-03 14:48:00,77.4,58.4,29.79,NE,45,3.7,-999.0,52,-99.99,,,0.00,Acu-Link.com,2013-08-03 21:48:00,
2013-08-03 15:03:00,77.5,59.0,29.79,ENE,67,2.2,-999.0,53,-99.99,,,0.00,Acu-Link.com,2013-08-03 22:03:00,
2013-08-03 15:19:00,78.1,58.5,29.80,North,0,3.2,-999.0,51,-99.99,,,0.00,Acu-Link.com,2013-08-03 22:19:00,
2013-08-03 15:34:00,77.0,58.0,29.77,SE,135,2.2,-999.0,52,-99.99,,,0.00,Acu-Link.com,2013-08-03 22:34:00,
2013-08-03 15:49:00,77.4,58.4,29.77,SE,135,2.7,-999.0,52,-99.99,,,0.00,Acu-Link.com,2013-08-03 22:49:00,
2013-08-03 16:04:00,77.4,58.4,29.79,NNE,22,4.7,-999.0,52,-99.99,,,0.00,Acu-Link.com,2013-08-03 23:04:00,
2013-08-03 16:19:00,77.4,58.4,29.78,NE,45,3.2,-999.0,52,-99.99,,,0.00,Acu-Link.com,2013-08-03 23:19:00,
2013-08-03 16:35:00,77.2,58.2,29.77,NE,45,2.7,-999.0,52,-99.99,,,0.00,Acu-Link.com,2013-08-03 23:35:00,
2013-08-03 16:50:00,77.0,58.5,29.77,NE,45,4.2,-999.0,53,-99.99,,,0.00,Acu-Link.com,2013-08-03 23:50:00,
2013-08-03 17:05:00,76.8,58.4,29.77,NE,45,4.2,-999.0,53,-99.99,,,0.00,Acu-Link.com,2013-08-04 00:05:00,
2013-08-03 17:20:00,75.4,57.6,29.77,SSE,157,2.7,-999.0,54,-99.99,,,0.00,Acu-Link.com,2013-08-04 00:20:00,
2013-08-03 17:35:00,75.7,57.9,29.77,NNW,337,1.7,-999.0,54,-99.99,,,0.00,Acu-Link.com,2013-08-04 00:35:00,
2013-08-03 17:51:00,73.2,57.0,29.76,NNW,337,2.7,-999.0,57,-99.99,,,0.00,Acu-Link.com,2013-08-04 00:51:00,
2013-08-03 18:06:00,71.6,56.0,29.76,ESE,112,2.2,-999.0,58,-99.99,,,0.00,Acu-Link.com,2013-08-04 01:06:00,
2013-08-03 18:37:00,70.9,55.4,29.76,WSW,247,3.2,-999.0,58,-99.99,,,0.00,Acu-Link.com,2013-08-04 01:37:00,
2013-08-03 18:52:00,68.9,54.4,29.75,South,180,0.0,-999.0,60,-99.99,,,0.00,Acu-Link.com,2013-08-04 01:52:00,
2013-08-03 19:07:00,67.1,54.1,29.74,WNW,292,0.0,-999.0,63,-99.99,,,0.00,Acu-Link.com,2013-08-04 02:07:00,
2013-08-03 19:22:00,65.8,53.7,29.75,SW,225,1.1,-999.0,65,-99.99,,,0.00,Acu-Link.com,2013-08-04 02:22:00,
2013-08-03 19:38:00,64.9,53.3,29.76,NE,45,2.2,-999.0,66,-99.99,,,0.00,Acu-Link.com,2013-08-04 02:38:00,
2013-08-03 19:53:00,63.7,52.9,29.76,WSW,247,1.1,-999.0,68,-99.99,,,0.00,Acu-Link.com,2013-08-04 02:53:00,
2013-08-03 20:08:00,63.1,52.8,29.76,NW,315,0.0,-999.0,69,-99.99,,,0.00,Acu-Link.com,2013-08-04 03:08:00,
2013-08-03 20:23:00,61.2,52.5,29.76,SSW,202,2.7,-999.0,73,-99.99,,,0.00,Acu-Link.com,2013-08-04 03:23:00,
2013-08-03 20:39:00,61.0,52.3,29.79,SW,225,1.1,-999.0,73,-99.99,,,0.00,Acu-Link.com,2013-08-04 03:39:00,
2013-08-03 20:54:00,60.3,52.3,29.78,WSW,247,0.0,-999.0,75,-99.99,,,0.00,Acu-Link.com,2013-08-04 03:54:00,
2013-08-03 21:09:00,59.7,52.1,29.79,East,90,0.0,-999.0,76,-99.99,,,0.00,Acu-Link.com,2013-08-04 04:09:00,
2013-08-03 21:24:00,59.2,52.7,29.79,SSE,157,1.1,-999.0,79,-99.99,,,0.00,Acu-Link.com,2013-08-04 04:24:00,
2013-08-03 21:39:00,59.2,52.7,29.79,SE,135,2.2,-999.0,79,-99.99,,,0.00,Acu-Link.com,2013-08-04 04:39:00,
2013-08-03 21:55:00,58.6,52.1,29.80,ESE,112,0.0,-999.0,79,-99.99,,,0.00,Acu-Link.com,2013-08-04 04:55:00,
2013-08-03 22:10:00,58.5,52.4,29.80,SSW,202,0.0,-999.0,80,-99.99,,,0.00,Acu-Link.com,2013-08-04 05:10:00,
2013-08-03 22:25:00,57.7,52.2,29.80,SW,225,0.0,-999.0,82,-99.99,,,0.00,Acu-Link.com,2013-08-04 05:25:00,
2013-08-03 22:40:00,57.0,51.6,29.82,SE,135,0.0,-999.0,82,-99.99,,,0.00,Acu-Link.com,2013-08-04 05:40:00,
2013-08-03 22:56:00,55.9,51.5,29.82,West,270,2.7,-999.0,85,-99.99,,,0.00,Acu-Link.com,2013-08-04 05:56:00,
2013-08-03 23:11:00,55.2,51.1,29.82,WSW,247,1.7,-999.0,86,-99.99,,,0.00,Acu-Link.com,2013-08-04 06:11:00,
2013-08-03 23:26:00,55.2,51.1,29.82,SE,135,2.7,-999.0,86,-99.99,,,0.00,Acu-Link.com,2013-08-04 06:26:00,
2013-08-03 23:41:00,56.5,52.7,29.82,WSW,247,1.1,-999.0,87,-99.99,,,0.00,Acu-Link.com,2013-08-04 06:41:00,
2013-08-03 23:57:00,57.4,54.2,29.82,West,270,2.2,-999.0,89,-99.99,,,0.00,Acu-Link.com,2013-08-04 06:57:00,